createdAt,value
2023-12-11T00:00:44.149Z,99391.13
2023-12-11T00:04:51.558Z,99396.28
2023-12-11T00:08:56.287Z,99392.16
2023-12-11T00:13:01.116Z,99403.34
2023-12-11T00:17:06.183Z,99406.88
2023-12-11T00:21:13.569Z,99405.00
2023-12-11T00:25:18.465Z,99410.69
2023-12-11T00:29:23.231Z,99406.06
2023-12-11T00:33:28.052Z,99413.13
2023-12-11T00:37:35.368Z,99415.56
2023-12-11T00:41:40.795Z,99409.84
2023-12-11T00:45:45.556Z,99415.84
2023-12-11T00:49:51.545Z,99406.31
2023-12-11T00:53:58.958Z,99411.47
2023-12-11T00:58:04.464Z,99411.22
2023-12-11T01:02:09.197Z,99415.31
2023-12-11T01:06:14.022Z,99416.94
2023-12-11T01:10:21.347Z,99407.19
2023-12-11T01:14:26.111Z,99400.41
2023-12-11T01:18:31.035Z,99400.66
2023-12-11T01:22:35.841Z,99412.09
2023-12-11T01:26:43.297Z,99407.19
2023-12-11T01:30:48.041Z,99410.72
2023-12-11T01:34:52.874Z,99411.00
2023-12-11T01:38:57.630Z,99397.16
2023-12-11T01:43:19.048Z,99387.38
2023-12-11T01:47:24.630Z,99390.91
2023-12-11T01:51:29.606Z,99389.28
2023-12-11T01:55:37.037Z,99388.72
2023-12-11T01:59:47.520Z,99394.97
2023-12-11T02:03:54.906Z,99394.97
2023-12-11T02:08:00.130Z,99394.69
2023-12-11T02:12:06.608Z,99393.59
2023-12-11T02:16:17.913Z,99375.69
2023-12-11T02:20:22.646Z,99375.41
2023-12-11T02:24:32.090Z,99356.94
2023-12-11T02:28:39.467Z,99354.78
2023-12-11T02:32:44.210Z,99341.75
2023-12-11T02:36:49.466Z,99335.78
2023-12-11T02:40:54.306Z,99327.06
2023-12-11T02:45:01.695Z,99319.75
2023-12-11T02:49:06.507Z,99324.38
2023-12-11T02:53:11.995Z,99316.47
2023-12-11T02:57:18.228Z,99307.78
2023-12-11T03:01:25.871Z,99314.03
2023-12-11T03:05:30.709Z,99296.66
2023-12-11T03:09:35.555Z,99294.22
2023-12-11T03:13:40.318Z,99280.63
2023-12-11T03:17:49.866Z,99270.59
2023-12-11T03:21:57.117Z,99267.91
2023-12-11T03:26:01.988Z,99254.31
2023-12-11T03:30:07.298Z,99265.44
2023-12-11T03:34:14.929Z,99263.28
2023-12-11T03:38:19.707Z,99276.28
2023-12-11T03:42:24.477Z,99266.25
2023-12-11T03:46:29.245Z,99264.63
2023-12-11T03:50:36.588Z,99251.31
2023-12-11T03:54:41.414Z,99268.97
2023-12-11T03:58:46.314Z,99259.47
2023-12-11T04:02:52.326Z,99246.13
2023-12-11T04:06:59.714Z,99248.88
2023-12-11T04:11:04.486Z,99249.13
2023-12-11T04:15:10.573Z,99254.00
2023-12-11T04:19:15.629Z,99240.16
2023-12-11T04:23:23.002Z,99224.16
2023-12-11T04:27:27.896Z,99241.25
2023-12-11T04:31:32.690Z,99239.63
2023-12-11T04:35:37.381Z,99232.81
2023-12-11T04:39:44.841Z,99227.69
2023-12-11T04:43:51.859Z,99226.84
2023-12-11T04:47:56.702Z,99228.75
2023-12-11T04:52:01.535Z,99226.03
2023-12-11T04:56:12.739Z,99226.84
2023-12-11T05:00:18.919Z,99215.47
2023-12-11T05:04:23.782Z,99207.06
2023-12-11T05:08:30.449Z,99217.91
2023-12-11T05:12:38.176Z,99193.22
2023-12-11T05:16:42.864Z,99181.84
2023-12-11T05:20:47.709Z,99188.09
2023-12-11T05:24:52.591Z,99193.50
2023-12-11T05:29:01.734Z,99187.81
2023-12-11T05:33:06.798Z,99194.59
2023-12-11T05:37:11.669Z,99189.44
2023-12-11T05:41:16.633Z,99186.16
2023-12-11T05:45:24.055Z,99193.78
2023-12-11T05:49:28.875Z,99175.88
2023-12-11T05:53:33.670Z,99172.88
2023-12-11T05:57:38.520Z,99171.56
2023-12-11T06:01:46.025Z,99170.47
2023-12-11T06:05:52.592Z,99176.97
2023-12-11T06:09:57.389Z,99163.41
2023-12-11T06:14:02.246Z,99158.25
2023-12-11T06:18:11.193Z,99161.78
2023-12-11T06:22:16.088Z,99158.25
2023-12-11T06:26:32.700Z,99155.53
2023-12-11T06:30:37.705Z,99161.78
2023-12-11T06:34:45.230Z,99157.97
2023-12-11T06:38:51.285Z,99155.53
2023-12-11T06:42:56.055Z,99151.19
2023-12-11T06:47:00.918Z,99157.97
2023-12-11T06:51:08.432Z,99139.78
2023-12-11T06:55:13.240Z,99157.69
2023-12-11T06:59:18.000Z,99131.94
2023-12-11T07:03:22.819Z,99129.75
2023-12-11T07:07:30.493Z,99134.38
2023-12-11T07:11:35.487Z,99126.75
2023-12-11T07:15:40.379Z,99137.88
2023-12-11T07:19:45.188Z,99141.69
2023-12-11T07:23:53.388Z,99148.75
2023-12-11T07:27:58.216Z,99145.47
2023-12-11T07:32:02.951Z,99124.88
2023-12-11T07:36:08.799Z,99129.50
2023-12-11T07:40:16.469Z,99142.50
2023-12-11T07:44:21.796Z,99139.81
2023-12-11T07:48:26.651Z,99132.19
2023-12-11T07:52:32.193Z,99138.16
2023-12-11T07:56:39.635Z,99133.56
2023-12-11T08:00:44.443Z,99122.72
2023-12-11T08:04:49.776Z,99134.09
2023-12-11T08:08:54.707Z,99121.34
2023-12-11T08:13:02.076Z,99130.03
2023-12-11T08:17:12.067Z,99127.03
2023-12-11T08:21:17.863Z,99117.56
2023-12-11T08:25:23.223Z,99129.75
2023-12-11T08:29:30.575Z,99131.91
2023-12-11T08:33:35.425Z,99122.72
2023-12-11T08:37:40.439Z,99126.25
2023-12-11T08:41:45.269Z,99133.84
2023-12-11T08:45:52.609Z,99129.47
2023-12-11T08:50:00.478Z,99147.41
2023-12-11T08:54:05.381Z,99157.16
2023-12-11T08:58:10.468Z,99161.47
2023-12-11T09:02:17.998Z,99169.91
2023-12-11T09:06:24.334Z,99169.34
2023-12-11T09:10:29.179Z,99178.53
2023-12-11T09:14:33.946Z,99181.25
2023-12-11T09:18:41.479Z,99187.75
2023-12-11T09:22:47.517Z,99195.63
2023-12-11T09:26:52.200Z,99191.56
2023-12-11T09:30:56.983Z,99204.03
2023-12-11T09:35:04.437Z,99218.66
2023-12-11T09:39:09.461Z,99237.09
2023-12-11T09:43:14.357Z,99253.63
2023-12-11T09:47:23.994Z,99259.84
2023-12-11T09:51:31.394Z,99286.69
2023-12-11T09:55:36.178Z,99305.69
2023-12-11T09:59:41.633Z,99309.47
2023-12-11T10:03:46.555Z,99314.94
2023-12-11T10:07:54.074Z,99303.53
2023-12-11T10:12:04.605Z,99330.63
2023-12-11T10:16:30.918Z,99333.31
2023-12-11T10:20:36.759Z,99335.22
2023-12-11T10:24:48.443Z,99344.25
2023-12-11T10:28:53.188Z,99370.03
2023-12-11T10:33:04.365Z,99355.41
2023-12-11T10:37:09.776Z,99361.69
2023-12-11T10:41:29.413Z,99380.41
2023-12-11T10:45:35.523Z,99391.81
2023-12-11T10:49:40.972Z,99386.94
2023-12-11T10:53:48.454Z,99408.38
2023-12-11T10:57:57.446Z,99442.28
2023-12-11T11:02:04.320Z,99432.22
2023-12-11T11:06:11.039Z,99457.19
2023-12-11T11:10:22.565Z,99473.47
2023-12-11T11:14:51.471Z,99473.44
2023-12-11T11:19:10.483Z,99469.31
2023-12-11T11:23:28.492Z,99490.75
2023-12-11T11:27:43.997Z,99500.28
2023-12-11T11:31:55.759Z,99499.19
2023-12-11T11:36:05.668Z,99515.50
2023-12-11T11:40:12.233Z,99525.28
2023-12-11T11:44:18.791Z,99532.03
2023-12-11T11:48:44.102Z,99540.47
2023-12-11T11:52:52.211Z,99534.50
2023-12-11T11:56:57.488Z,99550.56
2023-12-11T12:01:07.451Z,99560.81
2023-12-11T12:05:15.583Z,99584.91
2023-12-11T12:09:21.556Z,99586.28
2023-12-11T12:13:28.690Z,99590.06
2023-12-11T12:17:34.157Z,99595.06
2023-12-11T12:21:55.587Z,99595.00
2023-12-11T12:26:01.773Z,99602.34
2023-12-11T12:30:07.499Z,99626.97
2023-12-11T12:34:12.643Z,99629.09
2023-12-11T12:38:20.620Z,99639.91
2023-12-11T12:42:25.502Z,99648.06
2023-12-11T12:46:30.794Z,99649.91
2023-12-11T12:50:35.599Z,99645.75
2023-12-11T12:54:57.840Z,99655.06
2023-12-11T12:59:06.952Z,99658.09
2023-12-11T13:03:11.730Z,99655.94
2023-12-11T13:07:18.626Z,99670.03
2023-12-11T13:11:41.828Z,99682.44
2023-12-11T13:15:46.605Z,99690.00
2023-12-11T13:19:51.652Z,99698.25
2023-12-11T13:23:58.338Z,99708.72
2023-12-11T13:28:07.513Z,99713.56
2023-12-11T13:32:14.234Z,99715.41
2023-12-11T13:36:19.224Z,99728.41
2023-12-11T13:40:24.787Z,99739.22
2023-12-11T13:44:32.206Z,99748.00
2023-12-11T13:48:38.266Z,99754.94
2023-12-11T13:52:43.101Z,99775.34
2023-12-11T13:56:49.206Z,99787.28
2023-12-11T14:00:56.878Z,99793.59
2023-12-11T14:05:01.816Z,99796.22
2023-12-11T14:09:07.119Z,99809.84
2023-12-11T14:13:14.741Z,99827.56
2023-12-11T14:17:22.143Z,99826.84
2023-12-11T14:21:26.925Z,99832.69
2023-12-11T14:25:32.185Z,99846.59
2023-12-11T14:29:37.019Z,99863.31
2023-12-11T14:33:44.763Z,99849.59
2023-12-11T14:37:49.677Z,99855.75
2023-12-11T14:41:55.376Z,99869.09
2023-12-11T14:46:00.851Z,99882.06
2023-12-11T14:50:09.823Z,99889.94
2023-12-11T14:54:14.898Z,99904.09
2023-12-11T14:58:19.700Z,99904.16
2023-12-11T15:02:24.569Z,99911.53
2023-12-11T15:06:32.065Z,99929.22
2023-12-11T15:10:36.841Z,99933.72
2023-12-11T15:14:41.571Z,99951.09
2023-12-11T15:18:48.115Z,99953.38
2023-12-11T15:22:57.072Z,99954.09
2023-12-11T15:27:01.806Z,99946.94
2023-12-11T15:31:13.301Z,99937.41
2023-12-11T15:35:19.647Z,99940.59
2023-12-11T15:39:26.930Z,99945.75
2023-12-11T15:43:31.702Z,99937.41
2023-12-11T15:47:59.861Z,99941.16
2023-12-11T15:52:01.285Z,99954.63
2023-12-11T15:56:09.485Z,99962.97
2023-12-11T16:00:15.501Z,99967.47
2023-12-11T16:04:20.257Z,99970.75
2023-12-11T16:08:25.376Z,99973.47
2023-12-11T16:12:32.771Z,99987.00
2023-12-11T16:16:40.058Z,99984.53
2023-12-11T16:20:45.596Z,99988.75
2023-12-11T16:24:50.417Z,99992.78
2023-12-11T16:28:57.808Z,99995.63
2023-12-11T16:33:02.797Z,99996.56
2023-12-11T16:37:08.062Z,99999.88
2023-12-11T16:41:13.511Z,100005.41
2023-12-11T16:45:21.181Z,99996.38
2023-12-11T16:49:26.070Z,99998.13
2023-12-11T16:53:30.841Z,100002.59
2023-12-11T16:57:35.624Z,100014.84
2023-12-11T17:01:43.077Z,100026.72
2023-12-11T17:05:47.975Z,100022.69
2023-12-11T17:09:55.024Z,100028.09
2023-12-11T17:13:59.789Z,100037.25
2023-12-11T17:18:08.215Z,100040.19
2023-12-11T17:22:13.042Z,100050.44
2023-12-11T17:26:17.890Z,100056.19
2023-12-11T17:30:22.864Z,100065.94
2023-12-11T17:34:30.557Z,100077.56
2023-12-11T17:38:35.422Z,100082.97
2023-12-11T17:42:40.312Z,100091.91
2023-12-11T17:46:47.952Z,100096.94
2023-12-11T17:50:55.298Z,100104.00
2023-12-11T17:55:00.100Z,100103.19
2023-12-11T17:59:04.891Z,100106.34
2023-12-11T18:03:09.639Z,100099.75
2023-12-11T18:07:17.078Z,100106.47
2023-12-11T18:11:21.786Z,100119.16
2023-12-11T18:15:26.668Z,100117.72
2023-12-11T18:19:31.501Z,100120.16
2023-12-11T18:23:39.549Z,100119.16
2023-12-11T18:27:44.322Z,100123.84
2023-12-11T18:31:49.090Z,100134.53
2023-12-11T18:35:53.862Z,100149.50
2023-12-11T18:40:01.439Z,100158.19
2023-12-11T18:44:06.224Z,100159.59
2023-12-11T18:48:12.144Z,100157.13
2023-12-11T18:52:18.708Z,100156.88
2023-12-11T18:56:27.409Z,100172.06
2023-12-11T19:00:32.246Z,100169.22
2023-12-11T19:04:37.524Z,100179.66
2023-12-11T19:08:42.403Z,100179.75
2023-12-11T19:12:50.623Z,100186.69
2023-12-11T19:16:55.517Z,100198.75
2023-12-11T19:21:00.223Z,100196.06
2023-12-11T19:25:04.974Z,100199.97
2023-12-11T19:29:12.478Z,100207.38
2023-12-11T19:33:17.608Z,100217.72
2023-12-11T19:37:22.645Z,100213.38
2023-12-11T19:41:27.399Z,100204.53
2023-12-11T19:45:34.894Z,100203.09
2023-12-11T19:49:39.655Z,100222.34
2023-12-11T19:53:44.552Z,100231.13
2023-12-11T19:57:49.380Z,100223.72
2023-12-11T20:01:56.813Z,100230.38
2023-12-11T20:06:01.670Z,100237.72
2023-12-11T20:10:08.303Z,100246.53
2023-12-11T20:14:13.195Z,100245.47
2023-12-11T20:18:20.585Z,100241.06
2023-12-11T20:22:25.653Z,100249.28
2023-12-11T20:26:30.397Z,100245.09
2023-12-11T20:30:35.248Z,100250.88
2023-12-11T20:34:43.365Z,100257.47
2023-12-11T20:38:48.582Z,100262.88
2023-12-11T20:42:53.597Z,100266.63
2023-12-11T20:46:58.452Z,100264.75
2023-12-11T20:51:09.512Z,100270.16
2023-12-11T20:55:14.665Z,100276.84
2023-12-11T20:59:19.459Z,100277.66
2023-12-11T21:03:24.293Z,100281.78
2023-12-11T21:07:31.862Z,100275.31
2023-12-11T21:11:38.093Z,100270.31
2023-12-11T21:15:43.047Z,100276.75
2023-12-11T21:19:47.806Z,100271.13
2023-12-11T21:23:55.303Z,100273.00
2023-12-11T21:28:00.083Z,100277.44
2023-12-11T21:32:05.643Z,100279.53
2023-12-11T21:36:10.896Z,100282.44
2023-12-11T21:40:18.993Z,100291.59
2023-12-11T21:44:23.984Z,100283.66
2023-12-11T21:48:28.821Z,100281.69
2023-12-11T21:52:33.669Z,100295.59
2023-12-11T21:56:42.267Z,100296.53
2023-12-11T22:00:47.056Z,100307.97
2023-12-11T22:04:52.013Z,100317.06
2023-12-11T22:08:56.917Z,100321.53
2023-12-11T22:13:04.329Z,100326.72
2023-12-11T22:17:09.100Z,100338.53
2023-12-11T22:21:13.812Z,100341.59
2023-12-11T22:25:18.801Z,100338.22
2023-12-11T22:29:26.303Z,100341.06
2023-12-11T22:33:31.057Z,100352.63
2023-12-11T22:37:36.293Z,100357.94
2023-12-11T22:41:41.087Z,100369.56
2023-12-11T22:45:48.539Z,100361.59
2023-12-11T22:49:53.288Z,100360.91
2023-12-11T22:53:58.198Z,100361.88
2023-12-11T22:58:13.507Z,100362.47
2023-12-11T23:02:23.785Z,100360.97
2023-12-11T23:06:28.519Z,100366.72
2023-12-11T23:10:33.335Z,100367.69
2023-12-11T23:14:38.076Z,100368.06
2023-12-11T23:18:45.557Z,100357.59
2023-12-11T23:22:50.297Z,100369.63
2023-12-11T23:26:55.069Z,100370.22
2023-12-11T23:30:59.795Z,100371.63
2023-12-11T23:35:08.149Z,100362.47
2023-12-11T23:39:13.037Z,100356.81
2023-12-11T23:43:17.916Z,100373.66
2023-12-11T23:47:22.772Z,100380.13
2023-12-11T23:51:30.244Z,100380.94
2023-12-11T23:55:34.962Z,100379.44
2023-12-11T23:59:40.067Z,100379.44
